| Date | Time | Temp. (oF) | Dew Point (oF) | Rel. Hum. (%) | Press. (in.) | Wind Dir. | Wind Speed (mph) | Hourly Rainfall (in.) |
|
|---|---|---|---|---|---|---|---|---|---|
| 1 | 10/29 | 00:00 | 66 | 62 | 87 | 29.50 | SSW | 5 | 0.00 |
| 2 | 10/28 | 23:00 | 65 | 61 | 88 | 29.54 | SW | 1 | 0.07 |
| 3 | 10/28 | 22:00 | 67 | 63 | 88 | 29.54 | S | 12 | 0.15 |
| 4 | 10/28 | 21:00 | 67 | 63 | 88 | 29.51 | S | 12 | 0.01 |
| 5 | 10/28 | 20:00 | 68 | 64 | 88 | 29.55 | S | 7 | 0.03 |
| 6 | 10/28 | 19:00 | 67 | 63 | 88 | 29.61 | SSE | 5 | 0.12 |
| 7 | 10/28 | 18:00 | 66 | 62 | 88 | 29.66 | S | 4 | 0.04 |
| 8 | 10/28 | 17:00 | 67 | 63 | 88 | 29.68 | SSW | 6 | 0.02 |
| 9 | 10/28 | 16:00 | 69 | 65 | 88 | 29.71 | S | 4 | 0.02 |
| 10 | 10/28 | 15:00 | 65 | 61 | 88 | 29.74 | SE | 10 | 0.03 |
| 11 | 10/28 | 14:00 | 63 | 59 | 88 | 29.78 | SE | 3 | 0.17 |
| 12 | 10/28 | 13:00 | 62 | 58 | 88 | 29.83 | SSE | 7 | 0.05 |
| 13 | 10/28 | 12:00 | 61 | 57 | 88 | 29.90 | ESE | 19 | 0.00 |
| 14 | 10/28 | 11:00 | 60 | 56 | 89 | 29.96 | SE | 5 | 0.02 |
| 15 | 10/28 | 10:00 | 58 | 54 | 89 | 30.00 | SE | 16 | 0.07 |
| 16 | 10/28 | 09:00 | 57 | 53 | 89 | 30.05 | S | 5 | 0.05 |
| 17 | 10/28 | 08:00 | 55 | 51 | 89 | 30.06 | SE | 7 | 0.06 |
| 18 | 10/28 | 07:00 | 54 | 50 | 89 | 30.08 | ESE | 15 | 0.00 |
| 19 | 10/28 | 06:00 | 52 | 48 | 89 | 30.12 | SE | 10 | 0.01 |
| 20 | 10/28 | 05:00 | 51 | 47 | 88 | 30.14 | E | 2 | 0.00 |
| 21 | 10/28 | 04:00 | 50 | 46 | 87 | 30.17 | E | 4 | 0.01 |
| 22 | 10/28 | 03:00 | 51 | 46 | 84 | 30.23 | E | 5 | 0.00 |
| 23 | 10/28 | 02:00 | 50 | 45 | 84 | 30.25 | E | 3 | 0.00 |
| 24 | 10/28 | 01:00 | 50 | 44 | 81 | 30.29 | ENE | 3 | 0.00 |